Time;durP1;ratioP1;P1;durP2;ratioP2;P2;SDS_P1;SDS_P2;PMS_P1;PMS_P2;Temp;Humidity;BMP_temperature;BMP_pressure;BME280_temperature;BME280_humidity;BME280_pressure;Samples;Min_cycle;Max_cycle;Signal;HPM_P1;HPM_P2
2023/12/22 00:02:06;;;;;;;18.47;3.17;;;5.70;1.00;;;;;;5076704;28;20246;-81
2023/12/22 00:04:33;;;;;;;17.80;3.50;;;5.70;1.00;;;;;;5072529;28;20281;-83
2023/12/22 00:07:00;;;;;;;17.70;3.20;;;5.70;1.00;;;;;;5076642;28;20602;-81
2023/12/22 00:09:28;;;;;;;19.93;3.77;;;5.70;1.00;;;;;;5072423;28;20230;-80
2023/12/22 00:11:55;;;;;;;17.47;3.03;;;5.70;2.50;;;;;;5070917;28;20276;-79
2023/12/22 00:14:22;;;;;;;21.37;4.13;;;5.70;1.00;;;;;;5070427;28;20233;-78
2023/12/22 00:16:48;;;;;;;14.87;2.90;;;5.60;1.00;;;;;;5070094;28;20660;-80
2023/12/22 00:19:15;;;;;;;12.53;2.27;;;5.60;1.00;;;;;;5074507;28;20226;-80
2023/12/22 00:21:45;;;;;;;11.47;2.37;;;5.50;1.00;;;;;;5076297;28;20214;-81
2023/12/22 00:24:12;;;;;;;12.30;2.67;;;5.30;99.90;;;;;;5070892;28;20230;-80
2023/12/22 00:26:40;;;;;;;10.70;1.60;;;5.20;99.90;;;;;;5075569;28;20691;-81
2023/12/22 00:29:07;;;;;;;11.53;2.70;;;5.20;99.90;;;;;;5074560;28;20199;-80
2023/12/22 00:31:34;;;;;;;12.03;1.70;;;5.30;27.20;;;;;;5076429;28;20302;-80
2023/12/22 00:34:01;;;;;;;17.13;3.73;;;5.30;97.70;;;;;;5076398;28;20711;-81
2023/12/22 00:36:28;;;;;;;14.87;2.23;;;5.40;34.00;;;;;;5073092;28;20206;-82
2023/12/22 00:38:55;;;;;;;14.63;2.50;;;5.40;5.90;;;;;;5070445;28;20297;-81
2023/12/22 00:41:22;;;;;;;15.63;2.40;;;5.30;38.20;;;;;;5068299;28;20300;-80
2023/12/22 00:43:50;;;;;;;13.67;2.60;;;5.40;20.90;;;;;;5069867;28;20248;-80
2023/12/22 00:46:17;;;;;;;13.50;2.33;;;5.40;22.40;;;;;;5072822;28;20289;-79
2023/12/22 00:48:44;;;;;;;12.70;2.40;;;5.40;1.00;;;;;;5073200;28;20238;-79
2023/12/22 00:51:11;;;;;;;15.30;2.33;;;5.50;1.00;;;;;;5072083;28;20230;-79
2023/12/22 00:53:38;;;;;;;17.30;3.17;;;5.50;1.00;;;;;;5061805;28;20250;-81
2023/12/22 00:56:06;;;;;;;15.93;2.60;;;5.50;1.00;;;;;;5066001;28;20259;-80
2023/12/22 00:58:32;;;;;;;15.50;3.83;;;5.50;1.00;;;;;;5067199;28;20252;-79
2023/12/22 01:01:01;;;;;;;19.03;3.33;;;5.50;1.00;;;;;;5071603;28;20624;-80
2023/12/22 01:03:27;;;;;;;17.83;2.80;;;5.50;1.00;;;;;;5069326;28;20249;-82
2023/12/22 01:05:54;;;;;;;18.37;2.70;;;5.40;1.00;;;;;;5066184;28;20202;-79
2023/12/22 01:08:21;;;;;;;17.80;3.47;;;5.50;1.00;;;;;;5071226;28;20198;-80
2023/12/22 01:10:48;;;;;;;13.57;3.40;;;5.50;1.00;;;;;;5069303;28;20225;-81
2023/12/22 01:13:15;;;;;;;17.40;2.70;;;5.50;1.00;;;;;;5063697;28;20225;-81
2023/12/22 01:15:43;;;;;;;9.63;2.63;;;5.50;1.00;;;;;;5075281;28;20290;-81
2023/12/22 01:18:12;;;;;;;19.00;3.23;;;5.40;1.00;;;;;;5065295;28;20268;-79
2023/12/22 01:20:38;;;;;;;9.47;2.10;;;5.70;1.00;;;;;;5065090;28;20194;-80
2023/12/22 01:23:05;;;;;;;11.03;2.60;;;5.50;1.00;;;;;;5067381;28;20277;-79
2023/12/22 01:25:32;;;;;;;16.13;3.33;;;5.40;1.00;;;;;;5067009;28;20230;-80
2023/12/22 01:27:59;;;;;;;11.07;2.03;;;5.50;1.00;;;;;;5073095;28;20737;-80
2023/12/22 01:30:26;;;;;;;12.63;2.20;;;5.50;1.00;;;;;;5071030;28;20230;-79
2023/12/22 01:32:53;;;;;;;13.97;2.87;;;5.50;1.00;;;;;;5073933;28;20631;-81
2023/12/22 01:35:21;;;;;;;10.37;2.17;;;5.50;1.00;;;;;;5069772;28;20286;-80
2023/12/22 01:37:49;;;;;;;12.40;2.13;;;5.60;36.40;;;;;;5075621;28;20201;-80
2023/12/22 01:40:16;;;;;;;13.97;2.30;;;5.50;1.00;;;;;;5072750;28;20235;-80
2023/12/22 01:42:43;;;;;;;12.93;2.43;;;5.50;28.80;;;;;;5069985;28;20755;-81
2023/12/22 01:45:10;;;;;;;17.53;1.93;;;5.50;57.00;;;;;;5070077;28;20203;-82
2023/12/22 01:47:38;;;;;;;14.43;2.90;;;5.50;1.00;;;;;;5070354;28;20328;-81
2023/12/22 01:50:06;;;;;;;13.33;2.53;;;5.50;76.80;;;;;;5072984;28;20206;-80
2023/12/22 01:52:34;;;;;;;11.80;2.00;;;5.50;99.90;;;;;;5067505;28;20768;-80
2023/12/22 01:55:02;;;;;;;17.63;3.03;;;5.40;99.90;;;;;;5066895;28;20287;-81
2023/12/22 01:57:29;;;;;;;8.73;1.70;;;5.40;99.90;;;;;;5074792;28;20214;-81
2023/12/22 01:59:58;;;;;;;9.13;1.70;;;5.30;1.00;;;;;;5066870;28;20242;-79
2023/12/22 02:02:25;;;;;;;13.07;1.97;;;5.30;1.00;;;;;;5074160;28;20301;-81
2023/12/22 02:04:52;;;;;;;7.47;1.67;;;5.30;99.90;;;;;;5064445;28;20252;-82
2023/12/22 02:07:19;;;;;;;9.13;1.70;;;5.30;99.90;;;;;;5064322;28;20682;-78
2023/12/22 02:09:47;;;;;;;10.17;1.93;;;5.40;99.90;;;;;;5067487;28;20203;-80
2023/12/22 02:12:14;;;;;;;8.30;2.20;;;5.40;99.90;;;;;;5067084;28;20226;-79
2023/12/22 02:14:41;;;;;;;10.73;1.90;;;5.30;79.40;;;;;;5068325;28;20688;-79
2023/12/22 02:17:17;;;;;;;7.87;2.77;;;5.50;6.70;;;;;;5070047;28;20209;-78
2023/12/22 02:19:46;;;;;;;10.60;2.00;;;5.40;13.30;;;;;;5068531;28;20664;-80
2023/12/22 02:22:13;;;;;;;13.57;3.27;;;5.40;65.80;;;;;;5066507;28;20260;-80
2023/12/22 02:24:42;;;;;;;11.87;2.53;;;5.40;99.90;;;;;;5072233;28;20285;-79
2023/12/22 02:27:34;;;;;;;13.87;2.23;;;5.30;99.90;;;;;;5067740;28;20645;-80
2023/12/22 02:30:07;;;;;;;8.80;1.83;;;5.40;99.90;;;;;;5068142;28;20210;-82
2023/12/22 02:32:38;;;;;;;8.67;1.77;;;5.40;99.90;;;;;;5073246;28;20716;-79
2023/12/22 02:35:09;;;;;;;10.87;2.43;;;5.30;99.90;;;;;;5068901;28;20293;-80
2023/12/22 02:37:37;;;;;;;7.60;1.20;;;5.30;1.00;;;;;;5072728;28;20717;-79
2023/12/22 02:40:06;;;;;;;12.40;2.03;;;5.20;1.00;;;;;;5074608;28;20252;-79
2023/12/22 02:42:34;;;;;;;10.13;1.87;;;5.10;1.00;;;;;;5071168;28;20748;-79
2023/12/22 02:45:01;;;;;;;6.60;1.10;;;5.00;1.00;;;;;;5070456;28;20292;-80
2023/12/22 02:47:28;;;;;;;6.73;1.40;;;5.00;1.00;;;;;;5074661;28;20209;-81
2023/12/22 02:49:55;;;;;;;8.70;1.27;;;5.00;1.00;;;;;;5074132;28;20218;-79
2023/12/22 02:52:22;;;;;;;7.47;1.47;;;5.00;99.90;;;;;;5067617;28;20270;-81
2023/12/22 02:54:49;;;;;;;6.20;1.20;;;5.10;99.90;;;;;;5066595;28;20635;-82
2023/12/22 02:57:17;;;;;;;8.00;1.40;;;5.00;99.90;;;;;;5062770;28;20281;-80
2023/12/22 02:59:44;;;;;;;7.13;1.60;;;5.00;99.90;;;;;;5062783;28;20212;-81
2023/12/22 03:02:12;;;;;;;6.50;1.87;;;5.10;99.90;;;;;;5073798;28;20254;-79
2023/12/22 03:04:38;;;;;;;13.20;1.63;;;5.20;99.90;;;;;;5064466;28;20653;-81
2023/12/22 03:07:05;;;;;;;8.20;1.27;;;5.10;99.90;;;;;;5069137;28;20207;-81
2023/12/22 03:09:34;;;;;;;11.67;1.80;;;5.10;99.90;;;;;;5066322;28;20230;-80
2023/12/22 03:12:02;;;;;;;7.77;1.67;;;5.20;99.90;;;;;;5057667;28;20218;-81
2023/12/22 03:14:32;;;;;;;10.40;2.50;;;5.20;99.90;;;;;;5066366;28;20223;-80
2023/12/22 03:16:59;;;;;;;9.23;1.50;;;5.20;99.90;;;;;;5065145;28;20204;-79
2023/12/22 03:19:26;;;;;;;7.10;1.17;;;5.10;99.90;;;;;;5065215;28;20541;-79
2023/12/22 03:21:53;;;;;;;4.10;1.00;;;5.10;99.90;;;;;;5064763;28;20222;-82
2023/12/22 03:24:22;;;;;;;5.53;1.47;;;5.10;99.90;;;;;;5070603;28;20219;-82
2023/12/22 03:26:49;;;;;;;12.43;1.97;;;5.00;99.90;;;;;;5070290;28;20202;-79
2023/12/22 03:29:16;;;;;;;12.27;2.20;;;5.00;98.20;;;;;;5071612;28;20252;-81
2023/12/22 03:31:44;;;;;;;11.00;1.90;;;5.00;99.90;;;;;;5071352;28;20219;-81
2023/12/22 03:34:11;;;;;;;13.67;1.93;;;5.20;1.00;;;;;;5070373;28;20645;-80
2023/12/22 03:36:38;;;;;;;11.80;1.93;;;5.30;1.00;;;;;;5071018;28;20253;-80
2023/12/22 03:39:05;;;;;;;11.17;1.93;;;5.30;1.00;;;;;;5070389;28;20283;-80
2023/12/22 03:41:32;;;;;;;11.13;2.03;;;5.20;1.00;;;;;;5080358;28;20333;-80
2023/12/22 03:43:59;;;;;;;10.97;1.83;;;5.20;1.00;;;;;;5074107;28;20286;-80
2023/12/22 03:46:26;;;;;;;12.40;2.03;;;5.20;20.70;;;;;;5070594;28;20260;-82
2023/12/22 03:48:54;;;;;;;9.10;1.93;;;5.20;99.90;;;;;;5076120;28;20256;-79
2023/12/22 03:51:21;;;;;;;13.47;3.53;;;5.20;94.00;;;;;;5075051;28;20675;-80
2023/12/22 03:53:48;;;;;;;13.13;1.90;;;5.10;99.90;;;;;;5069595;28;20257;-82
2023/12/22 03:56:15;;;;;;;9.20;1.80;;;5.00;99.90;;;;;;5075830;28;20202;-80
2023/12/22 03:58:42;;;;;;;10.50;2.50;;;5.10;99.90;;;;;;5067122;28;20245;-80
2023/12/22 04:01:09;;;;;;;5.53;1.63;;;5.20;99.90;;;;;;5070556;28;20244;-79
2023/12/22 04:03:36;;;;;;;13.97;2.83;;;5.20;20.00;;;;;;5069518;28;20237;-79
2023/12/22 04:06:05;;;;;;;14.30;2.40;;;5.20;92.30;;;;;;5066130;28;20195;-79
2023/12/22 04:08:32;;;;;;;14.57;2.10;;;5.20;11.70;;;;;;5062592;28;20203;-78
2023/12/22 04:10:58;;;;;;;11.67;2.73;;;5.30;1.00;;;;;;5063609;28;20738;-78
2023/12/22 04:13:25;;;;;;;14.17;2.53;;;5.20;99.90;;;;;;5062737;28;20250;-78
2023/12/22 04:15:52;;;;;;;9.67;2.23;;;5.10;99.90;;;;;;5068704;28;20229;-78
2023/12/22 04:18:19;;;;;;;14.83;3.30;;;5.30;1.00;;;;;;5070161;28;20285;-79
2023/12/22 04:20:46;;;;;;;14.40;2.63;;;5.00;1.00;;;;;;5070182;28;20218;-78
2023/12/22 04:23:14;;;;;;;15.83;2.50;;;5.00;1.00;;;;;;5065836;28;20199;-78
2023/12/22 04:25:41;;;;;;;13.50;2.37;;;5.10;99.90;;;;;;5068254;28;20603;-79
2023/12/22 04:28:08;;;;;;;8.93;1.73;;;5.10;99.90;;;;;;5076709;28;20201;-80
2023/12/22 04:30:35;;;;;;;10.17;2.60;;;5.20;99.90;;;;;;5069506;28;20209;-79
2023/12/22 04:33:02;;;;;;;14.83;3.57;;;5.30;1.00;;;;;;5065245;28;20229;-80
2023/12/22 04:35:29;;;;;;;15.30;2.77;;;5.30;91.20;;;;;;5071487;28;20230;-78
2023/12/22 04:37:56;;;;;;;10.03;2.00;;;5.30;99.90;;;;;;5074745;28;20201;-79
2023/12/22 04:40:24;;;;;;;16.93;2.40;;;5.30;85.70;;;;;;5072686;28;20209;-80
2023/12/22 04:42:51;;;;;;;14.27;2.20;;;5.40;1.00;;;;;;5073249;28;20222;-79
2023/12/22 04:45:18;;;;;;;13.57;3.17;;;5.40;1.00;;;;;;5072968;28;20204;-81
2023/12/22 04:47:45;;;;;;;10.60;2.37;;;5.40;1.00;;;;;;5073736;28;20198;-80
2023/12/22 04:50:12;;;;;;;10.70;1.80;;;5.40;1.00;;;;;;5072029;28;20676;-78
2023/12/22 04:52:38;;;;;;;12.67;2.50;;;5.40;1.00;;;;;;5072895;28;20240;-78
2023/12/22 04:55:06;;;;;;;11.73;2.07;;;5.40;1.00;;;;;;5073468;28;20649;-79
2023/12/22 04:57:34;;;;;;;7.70;1.60;;;5.40;1.00;;;;;;5064798;28;20293;-79
2023/12/22 05:00:01;;;;;;;10.77;2.30;;;5.50;1.00;;;;;;5067770;28;20226;-79
2023/12/22 05:02:29;;;;;;;7.47;1.97;;;5.40;1.00;;;;;;5074681;28;20226;-80
2023/12/22 05:04:55;;;;;;;12.07;2.27;;;5.50;1.00;;;;;;5060234;28;20638;-80
2023/12/22 05:07:22;;;;;;;12.90;1.60;;;5.60;1.00;;;;;;5060363;28;20294;-77
2023/12/22 05:09:49;;;;;;;5.93;1.50;;;5.60;1.00;;;;;;5066033;28;20202;-78
2023/12/22 05:12:16;;;;;;;6.17;1.80;;;5.60;1.00;;;;;;5069279;28;20218;-78
2023/12/22 05:14:44;;;;;;;10.63;1.57;;;5.70;1.00;;;;;;5072773;28;20221;-78
2023/12/22 05:17:11;;;;;;;7.50;2.17;;;5.50;1.00;;;;;;5062825;28;20199;-80
2023/12/22 05:19:39;;;;;;;14.27;2.20;;;5.50;1.00;;;;;;5064542;28;20219;-79
2023/12/22 05:22:05;;;;;;;13.07;2.27;;;5.50;1.00;;;;;;5065285;28;20224;-80
2023/12/22 05:24:32;;;;;;;10.77;2.03;;;5.50;1.00;;;;;;5065415;28;20295;-80
2023/12/22 05:26:59;;;;;;;7.20;2.10;;;5.50;1.00;;;;;;5060617;28;20202;-80
2023/12/22 05:29:26;;;;;;;7.57;1.30;;;5.30;1.00;;;;;;5061468;28;20202;-80
2023/12/22 05:31:54;;;;;;;6.30;1.80;;;5.20;44.60;;;;;;5067773;28;20218;-80
2023/12/22 05:34:21;;;;;;;9.33;1.20;;;5.20;14.60;;;;;;5063693;28;20245;-79
2023/12/22 05:36:48;;;;;;;6.80;1.33;;;5.20;24.80;;;;;;5068462;28;20577;-81
2023/12/22 05:39:15;;;;;;;10.10;2.00;;;5.30;53.10;;;;;;5070551;28;20204;-80
2023/12/22 05:41:42;;;;;;;8.67;1.70;;;5.20;99.90;;;;;;5073710;28;20222;-80
2023/12/22 05:44:09;;;;;;;13.60;2.63;;;5.10;99.90;;;;;;5070467;28;20281;-81
2023/12/22 05:46:37;;;;;;;5.57;1.67;;;5.10;1.00;;;;;;5067951;28;20199;-81
2023/12/22 05:49:06;;;;;;;7.83;1.60;;;5.20;99.90;;;;;;5066314;28;20336;-80
2023/12/22 05:51:38;;;;;;;10.07;1.70;;;5.30;99.90;;;;;;5070780;28;20257;-82
2023/12/22 05:54:06;;;;;;;5.37;1.30;;;5.20;99.90;;;;;;5070788;28;20215;-79
2023/12/22 05:56:33;;;;;;;4.60;1.50;;;5.40;1.00;;;;;;5070513;28;20241;-81
2023/12/22 05:59:00;;;;;;;11.03;2.00;;;5.40;1.00;;;;;;5066436;28;20198;-79
2023/12/22 06:01:27;;;;;;;14.53;1.90;;;5.40;1.00;;;;;;5072830;28;20313;-79
2023/12/22 06:03:54;;;;;;;4.37;1.53;;;5.30;1.00;;;;;;5073545;28;20209;-81
2023/12/22 06:06:23;;;;;;;6.00;1.70;;;5.40;1.00;;;;;;5073753;28;20320;-81
2023/12/22 06:08:50;;;;;;;16.53;2.13;;;5.40;1.00;;;;;;5072701;28;20209;-79
2023/12/22 06:11:17;;;;;;;9.23;1.73;;;5.30;1.00;;;;;;5060520;28;20584;-79
2023/12/22 06:13:43;;;;;;;12.07;1.97;;;5.40;1.00;;;;;;5066142;28;20310;-80
2023/12/22 06:16:14;;;;;;;8.20;2.10;;;5.50;1.00;;;;;;5063934;28;20266;-81
2023/12/22 06:18:40;;;;;;;6.43;1.60;;;5.50;1.00;;;;;;5069977;28;20213;-81
2023/12/22 06:21:07;;;;;;;4.43;1.40;;;5.50;1.00;;;;;;5062310;28;20237;-80
2023/12/22 06:23:36;;;;;;;5.83;1.30;;;5.50;1.00;;;;;;5056828;28;20743;-79
2023/12/22 06:26:03;;;;;;;3.87;1.00;;;5.40;1.00;;;;;;5063814;28;20195;-80
2023/12/22 06:28:30;;;;;;;6.27;1.00;;;5.50;1.00;;;;;;5063073;28;20213;-83
2023/12/22 06:30:56;;;;;;;6.37;1.37;;;5.40;1.00;;;;;;5065652;28;20712;-80
2023/12/22 06:33:23;;;;;;;4.13;1.73;;;5.20;99.90;;;;;;5066713;28;20203;-80
2023/12/22 06:35:53;;;;;;;13.50;2.93;;;5.00;1.00;;;;;;5068096;28;20634;-80
2023/12/22 06:38:20;;;;;;;11.87;2.60;;;4.70;1.00;;;;;;5067896;28;20204;-79
2023/12/22 06:40:48;;;;;;;11.07;4.13;;;4.30;7.60;;;;;;5068776;28;20219;-80
2023/12/22 06:43:15;;;;;;;6.50;1.10;;;4.10;1.00;;;;;;5072596;28;20204;-80
2023/12/22 06:45:42;;;;;;;9.67;1.00;;;3.70;99.90;;;;;;5070079;28;20233;-78
2023/12/22 06:48:10;;;;;;;4.67;0.60;;;3.70;99.90;;;;;;5072946;28;20292;-80
2023/12/22 06:50:39;;;;;;;3.83;1.03;;;3.70;1.00;;;;;;5069949;28;20276;-79
2023/12/22 06:53:07;;;;;;;2.43;0.53;;;3.50;1.00;;;;;;5071010;28;20256;-78
2023/12/22 06:55:34;;;;;;;1.00;0.30;;;3.10;1.00;;;;;;5070326;28;20222;-79
2023/12/22 06:58:02;;;;;;;1.10;0.70;;;2.70;85.30;;;;;;5069618;28;20204;-80
2023/12/22 07:00:29;;;;;;;1.33;0.40;;;2.60;99.90;;;;;;5070151;28;20241;-80
2023/12/22 07:02:56;;;;;;;1.90;0.80;;;2.60;99.90;;;;;;5075491;28;20740;-78
2023/12/22 07:05:36;;;;;;;0.60;0.30;;;2.60;99.90;;;;;;5075082;28;20202;-80
2023/12/22 07:08:06;;;;;;;0.50;0.50;;;2.70;99.90;;;;;;5076078;28;20197;-80
2023/12/22 07:10:33;;;;;;;0.87;0.33;;;2.90;99.90;;;;;;5062293;28;20207;-81
2023/12/22 07:13:01;;;;;;;1.33;0.20;;;3.00;99.90;;;;;;5076662;28;20206;-79
2023/12/22 07:15:29;;;;;;;0.57;0.33;;;3.00;99.90;;;;;;5071528;28;20313;-79
2023/12/22 07:17:56;;;;;;;5.03;0.80;;;3.20;99.90;;;;;;5066710;28;20218;-80
2023/12/22 07:20:23;;;;;;;2.43;0.77;;;3.10;99.90;;;;;;5065349;28;20211;-78
2023/12/22 07:22:50;;;;;;;3.97;1.00;;;3.10;99.90;;;;;;5067656;28;20199;-80
2023/12/22 07:25:19;;;;;;;2.40;1.20;;;3.10;99.90;;;;;;5067432;28;20199;-78
2023/12/22 07:27:47;;;;;;;8.03;1.77;;;3.20;99.90;;;;;;5061753;28;20207;-78
2023/12/22 07:30:16;;;;;;;6.67;1.20;;;3.20;99.90;;;;;;5072128;28;20205;-78
2023/12/22 07:32:47;;;;;;;9.37;1.70;;;3.30;99.90;;;;;;5066332;28;20230;-78
2023/12/22 07:35:14;;;;;;;6.27;1.67;;;3.50;99.90;;;;;;5071323;28;20218;-78
2023/12/22 07:37:41;;;;;;;11.37;2.00;;;3.90;99.90;;;;;;5067774;28;20238;-80
2023/12/22 07:40:09;;;;;;;14.73;2.60;;;4.40;1.00;;;;;;5074103;28;20255;-78
2023/12/22 07:42:37;;;;;;;13.23;2.23;;;4.80;1.00;;;;;;5077527;28;20230;-79
2023/12/22 07:45:05;;;;;;;17.67;4.70;;;4.90;1.00;;;;;;5073580;28;20190;-78
2023/12/22 07:47:34;;;;;;;13.80;2.90;;;4.90;1.00;;;;;;5073065;28;20208;-83
2023/12/22 07:50:01;;;;;;;12.30;2.63;;;4.90;99.90;;;;;;5075926;28;20209;-81
2023/12/22 07:52:28;;;;;;;14.03;3.13;;;5.00;1.00;;;;;;5076426;28;20222;-80
2023/12/22 07:54:55;;;;;;;17.63;2.70;;;4.90;1.00;;;;;;5072071;28;20301;-80
2023/12/22 07:57:22;;;;;;;16.33;3.13;;;4.80;1.00;;;;;;5075723;28;20238;-82
2023/12/22 07:59:49;;;;;;;18.17;4.27;;;4.90;1.00;;;;;;5078431;28;20629;-80
2023/12/22 08:02:15;;;;;;;15.57;2.70;;;4.90;99.90;;;;;;5079002;28;20433;-79
2023/12/22 08:04:44;;;;;;;19.07;2.37;;;4.80;1.00;;;;;;5071162;28;20208;-79
2023/12/22 08:07:11;;;;;;;13.07;2.30;;;4.70;1.00;;;;;;5076391;28;20718;-78
2023/12/22 08:09:37;;;;;;;16.77;2.50;;;4.60;1.00;;;;;;5074169;28;20757;-81
2023/12/22 08:12:05;;;;;;;11.90;2.00;;;4.90;99.90;;;;;;5074954;28;20221;-80
2023/12/22 08:14:32;;;;;;;15.63;2.60;;;4.80;1.00;;;;;;5074872;28;20222;-80
2023/12/22 08:16:58;;;;;;;10.43;2.20;;;5.20;99.90;;;;;;5073457;28;20210;-80
2023/12/22 08:19:25;;;;;;;16.83;2.27;;;5.40;99.90;;;;;;5065670;28;20261;-78
2023/12/22 08:21:55;;;;;;;12.30;2.63;;;5.20;1.00;;;;;;5060482;28;20273;-79
2023/12/22 08:24:22;;;;;;;14.93;2.80;;;5.10;1.00;;;;;;5059961;28;20277;-80
2023/12/22 08:26:48;;;;;;;34.47;4.00;;;5.30;99.90;;;;;;5066436;28;20585;-79
2023/12/22 08:29:18;;;;;;;10.53;2.40;;;5.50;1.00;;;;;;5064125;28;20234;-79
2023/12/22 08:31:45;;;;;;;13.17;2.77;;;5.50;1.20;;;;;;5064934;28;20223;-79
2023/12/22 08:34:12;;;;;;;14.77;3.27;;;5.50;1.00;;;;;;5067550;28;20317;-78
2023/12/22 08:36:39;;;;;;;12.70;2.33;;;5.60;1.00;;;;;;5067601;28;20206;-78
2023/12/22 08:39:07;;;;;;;15.30;2.40;;;5.70;1.00;;;;;;5072554;28;20198;-78
2023/12/22 08:41:36;;;;;;;15.77;2.50;;;5.80;1.00;;;;;;5069963;28;20248;-79
2023/12/22 08:44:03;;;;;;;13.43;2.33;;;5.80;1.00;;;;;;5069972;28;20202;-78
2023/12/22 08:46:31;;;;;;;17.03;2.93;;;5.90;1.00;;;;;;5069680;28;20301;-80
2023/12/22 08:48:59;;;;;;;15.50;2.50;;;6.10;99.90;;;;;;5070481;28;20207;-80
2023/12/22 08:51:26;;;;;;;15.27;2.30;;;6.20;99.90;;;;;;5069096;28;20234;-79
2023/12/22 08:53:54;;;;;;;10.97;2.50;;;6.10;99.90;;;;;;5070103;28;20291;-79
2023/12/22 08:56:23;;;;;;;15.37;3.77;;;6.20;99.90;;;;;;5071035;28;20724;-82
2023/12/22 08:58:52;;;;;;;12.90;2.37;;;6.20;99.90;;;;;;5072075;28;20206;-79
2023/12/22 09:01:19;;;;;;;14.53;2.50;;;6.20;99.90;;;;;;5072194;28;20228;-79
2023/12/22 09:03:46;;;;;;;14.37;4.00;;;6.20;99.90;;;;;;5072811;28;20204;-79
2023/12/22 09:06:15;;;;;;;14.50;3.13;;;6.20;99.90;;;;;;5072818;28;20657;-78
2023/12/22 09:08:42;;;;;;;14.70;2.77;;;6.20;99.90;;;;;;5073701;28;20198;-79
2023/12/22 09:11:09;;;;;;;10.50;2.20;;;6.30;99.90;;;;;;5071775;28;20307;-78
2023/12/22 09:13:37;;;;;;;13.17;2.57;;;6.30;85.00;;;;;;5072923;28;20228;-78
2023/12/22 09:16:05;;;;;;;14.63;2.40;;;6.40;1.00;;;;;;5071598;28;20217;-79
2023/12/22 09:18:32;;;;;;;8.50;2.37;;;6.40;1.00;;;;;;5073440;28;20202;-78
2023/12/22 09:20:59;;;;;;;14.13;2.43;;;6.50;1.00;;;;;;5070493;28;20303;-78
2023/12/22 09:23:26;;;;;;;16.47;4.00;;;6.60;1.00;;;;;;5068505;28;20285;-79
2023/12/22 09:25:53;;;;;;;16.40;2.60;;;6.60;1.00;;;;;;5067614;28;20234;-79
2023/12/22 09:28:20;;;;;;;13.47;1.93;;;6.60;1.00;;;;;;5072007;28;20198;-79
2023/12/22 09:30:48;;;;;;;9.47;2.07;;;6.70;1.00;;;;;;5063402;28;20662;-79
2023/12/22 09:33:15;;;;;;;9.80;1.97;;;6.60;1.00;;;;;;5070727;28;20293;-80
2023/12/22 09:35:42;;;;;;;8.53;1.90;;;6.70;1.00;;;;;;5061796;28;20272;-79
2023/12/22 09:38:09;;;;;;;10.53;2.10;;;6.60;1.00;;;;;;5063782;28;20289;-81
2023/12/22 09:40:37;;;;;;;8.43;2.07;;;6.60;1.00;;;;;;5069106;28;20268;-80
2023/12/22 09:43:05;;;;;;;10.63;2.33;;;6.60;1.00;;;;;;5069331;28;20226;-80
2023/12/22 09:45:33;;;;;;;7.77;1.63;;;6.60;1.00;;;;;;5067237;28;20202;-80
2023/12/22 09:48:02;;;;;;;7.67;1.50;;;6.50;1.00;;;;;;5072066;28;20202;-81
2023/12/22 09:50:31;;;;;;;11.57;2.13;;;6.40;1.00;;;;;;5068752;28;20263;-79
2023/12/22 09:52:58;;;;;;;7.27;1.30;;;6.40;1.00;;;;;;5071766;28;20844;-78
2023/12/22 09:55:27;;;;;;;10.43;2.63;;;6.30;1.00;;;;;;5068571;28;20218;-79
2023/12/22 09:57:55;;;;;;;7.80;1.73;;;6.30;1.00;;;;;;5071052;28;20205;-79
2023/12/22 10:00:23;;;;;;;6.70;1.40;;;6.30;1.00;;;;;;5069594;28;20293;-81
2023/12/22 10:02:50;;;;;;;9.67;1.50;;;6.30;1.00;;;;;;5071266;28;20556;-79
2023/12/22 10:05:18;;;;;;;7.17;1.27;;;6.30;1.00;;;;;;5071664;28;20198;-78
2023/12/22 10:07:48;;;;;;;11.13;1.60;;;6.30;1.00;;;;;;5071620;28;20716;-79
2023/12/22 10:10:16;;;;;;;9.30;1.30;;;6.20;1.00;;;;;;5070950;28;20199;-78
2023/12/22 10:12:46;;;;;;;6.73;1.20;;;6.20;1.00;;;;;;5069370;28;20221;-80
2023/12/22 10:15:14;;;;;;;4.63;1.10;;;6.20;1.00;;;;;;5066680;28;20270;-78
2023/12/22 10:17:41;;;;;;;9.80;1.93;;;6.20;65.30;;;;;;5069643;28;20234;-81
2023/12/22 10:20:10;;;;;;;10.03;1.73;;;6.20;77.80;;;;;;5070409;28;20217;-81
2023/12/22 10:22:38;;;;;;;6.53;1.30;;;6.20;99.90;;;;;;5073464;28;20305;-79
2023/12/22 10:25:06;;;;;;;11.13;2.23;;;6.20;99.90;;;;;;5070263;28;20202;-79
2023/12/22 10:27:33;;;;;;;11.60;1.70;;;6.20;99.90;;;;;;5074013;28;20657;-78
2023/12/22 10:30:01;;;;;;;10.70;3.00;;;6.20;99.90;;;;;;5075167;28;20295;-79
2023/12/22 10:32:28;;;;;;;18.20;2.50;;;6.20;99.90;;;;;;5067734;28;20275;-80
2023/12/22 10:34:55;;;;;;;14.97;2.37;;;6.20;99.90;;;;;;5071735;28;20593;-79
2023/12/22 10:37:23;;;;;;;12.43;1.80;;;6.20;99.90;;;;;;5066080;28;20233;-80
2023/12/22 10:39:53;;;;;;;8.43;2.00;;;6.20;1.00;;;;;;5074476;28;20208;-79
2023/12/22 10:42:20;;;;;;;13.20;1.97;;;6.20;1.00;;;;;;5070093;28;20242;-79
2023/12/22 10:44:47;;;;;;;13.30;2.07;;;6.20;1.00;;;;;;5069617;28;20201;-78
2023/12/22 10:47:14;;;;;;;11.90;2.23;;;6.20;1.00;;;;;;5071790;28;20194;-79
2023/12/22 10:49:42;;;;;;;12.50;2.80;;;6.20;1.00;;;;;;5071776;28;20301;-80
2023/12/22 10:52:15;;;;;;;10.40;1.93;;;6.20;1.00;;;;;;5070663;28;20229;-78
2023/12/22 10:54:42;;;;;;;6.33;2.13;;;6.30;1.00;;;;;;5061439;28;20202;-80
2023/12/22 10:57:11;;;;;;;9.93;1.67;;;6.30;1.00;;;;;;5069038;28;20195;-79
2023/12/22 10:59:45;;;;;;;9.23;2.30;;;6.40;1.00;;;;;;5067538;28;20720;-80
2023/12/22 11:02:16;;;;;;;8.23;2.57;;;6.50;1.00;;;;;;5071858;28;20225;-80
2023/12/22 11:04:48;;;;;;;11.83;1.73;;;6.50;1.00;;;;;;5069791;28;20202;-79
2023/12/22 11:07:16;;;;;;;8.40;1.77;;;6.60;1.00;;;;;;5069194;28;20632;-79
2023/12/22 11:09:47;;;;;;;13.10;2.33;;;6.70;99.90;;;;;;5074259;28;20687;-81
2023/12/22 11:12:16;;;;;;;10.20;1.90;;;6.70;99.90;;;;;;5076085;28;20233;-80
2023/12/22 11:14:43;;;;;;;7.87;1.80;;;6.70;1.00;;;;;;5071596;28;20289;-80
2023/12/22 11:17:12;;;;;;;9.97;3.93;;;6.70;1.00;;;;;;5072881;28;20195;-80
2023/12/22 11:19:40;;;;;;;8.20;1.90;;;6.80;99.90;;;;;;5075847;28;20218;-80
2023/12/22 11:22:09;;;;;;;9.10;1.80;;;6.80;99.90;;;;;;5063560;28;20245;-79
2023/12/22 11:24:38;;;;;;;13.17;1.90;;;6.90;99.90;;;;;;5072594;28;20277;-79
2023/12/22 11:27:06;;;;;;;11.43;1.80;;;6.90;99.90;;;;;;5072135;28;20194;-79
2023/12/22 11:29:36;;;;;;;7.50;1.50;;;7.00;99.90;;;;;;5072280;28;20201;-80
2023/12/22 11:32:05;;;;;;;11.60;2.00;;;7.00;99.90;;;;;;5072299;28;20220;-79
2023/12/22 11:34:33;;;;;;;9.50;1.50;;;7.10;99.90;;;;;;5075239;28;20285;-80
2023/12/22 11:37:04;;;;;;;6.70;1.50;;;7.10;67.60;;;;;;5075874;28;20250;-80
2023/12/22 11:39:31;;;;;;;8.03;1.80;;;7.10;1.00;;;;;;5065977;28;20629;-79
2023/12/22 11:41:58;;;;;;;6.73;1.50;;;7.20;1.00;;;;;;5064334;28;20743;-79
2023/12/22 11:44:26;;;;;;;8.97;1.90;;;7.20;1.00;;;;;;5069166;28;20210;-81
2023/12/22 11:47:06;;;;;;;5.93;1.47;;;7.20;1.00;;;;;;5079098;28;20202;-85
2023/12/22 11:49:34;;;;;;;7.37;2.17;;;7.20;1.00;;;;;;5081801;28;20229;-84
2023/12/22 11:52:10;;;;;;;6.97;1.27;;;7.20;48.60;;;;;;5080962;28;20229;-84
2023/12/22 11:54:51;;;;;;;8.87;1.77;;;7.20;99.90;;;;;;5082332;28;20240;-84
2023/12/22 11:57:34;;;;;;;8.97;1.50;;;7.20;99.90;;;;;;5082182;28;20229;-83
2023/12/22 12:00:06;;;;;;;9.03;1.60;;;7.20;1.00;;;;;;5081163;28;20213;-82
2023/12/22 12:02:37;;;;;;;11.57;1.60;;;7.20;57.00;;;;;;5062262;28;20253;-83
2023/12/22 12:05:05;;;;;;;6.40;1.40;;;7.20;99.90;;;;;;5062866;28;20187;-84
2023/12/22 12:07:40;;;;;;;8.80;1.90;;;7.10;99.90;;;;;;5061937;28;20207;-84
2023/12/22 12:10:07;;;;;;;10.10;1.97;;;7.10;99.90;;;;;;5061779;28;20281;-81
2023/12/22 12:12:34;;;;;;;10.70;1.73;;;7.20;94.40;;;;;;5062303;28;20282;-81
2023/12/22 12:15:08;;;;;;;9.60;2.57;;;7.20;19.50;;;;;;5072974;28;20255;-81
2023/12/22 12:17:41;;;;;;;6.10;1.83;;;7.20;99.90;;;;;;5081418;28;20281;-81
2023/12/22 12:20:10;;;;;;;13.23;2.97;;;7.20;99.90;;;;;;5081663;28;20194;-80
2023/12/22 12:22:38;;;;;;;9.50;2.47;;;7.10;99.90;;;;;;5080014;28;20222;-82
2023/12/22 12:25:10;;;;;;;11.50;1.93;;;7.10;99.90;;;;;;5075723;28;20644;-81
2023/12/22 12:27:38;;;;;;;10.20;2.23;;;7.20;99.90;;;;;;5080904;28;20221;-81
2023/12/22 12:30:11;;;;;;;5.10;1.33;;;7.20;99.90;;;;;;5081639;28;20236;-83
2023/12/22 12:32:40;;;;;;;5.77;1.30;;;7.20;99.90;;;;;;5065341;28;20251;-83
2023/12/22 12:35:08;;;;;;;11.67;1.53;;;7.20;99.90;;;;;;5063009;28;20278;-82
2023/12/22 12:37:36;;;;;;;11.10;1.90;;;7.20;54.50;;;;;;5082807;28;20664;-81
2023/12/22 12:40:04;;;;;;;7.57;1.53;;;7.20;99.90;;;;;;5082746;28;20687;-84
2023/12/22 12:42:32;;;;;;;6.70;1.90;;;7.20;99.70;;;;;;5082307;28;20267;-83
2023/12/22 12:44:59;;;;;;;9.13;1.70;;;7.40;99.90;;;;;;5078563;28;20233;-81
2023/12/22 12:47:26;;;;;;;3.87;1.13;;;7.30;99.90;;;;;;5083016;28;20199;-81
2023/12/22 12:50:01;;;;;;;9.13;2.07;;;7.20;93.90;;;;;;5072610;28;20210;-81
2023/12/22 12:52:28;;;;;;;7.20;1.47;;;7.20;99.90;;;;;;5062926;28;20231;-81
2023/12/22 12:54:58;;;;;;;6.40;1.23;;;7.20;99.90;;;;;;5061708;28;20737;-83
2023/12/22 12:57:25;;;;;;;10.77;1.80;;;7.30;34.00;;;;;;5060826;28;20599;-82
2023/12/22 12:59:52;;;;;;;8.13;1.20;;;7.30;47.50;;;;;;5060806;28;20223;-82